sensor_id;sensor_type;location;lat;lon;timestamp;P1;durP1;ratioP1;P2;durP2;ratioP2
45522;SDS011;31254;51.680;5.394;2023-11-19T00:00:52;5.38;;;4.00;;
45522;SDS011;31254;51.680;5.394;2023-11-19T00:03:19;6.10;;;4.82;;
45522;SDS011;31254;51.680;5.394;2023-11-19T00:05:46;9.30;;;5.53;;
45522;SDS011;31254;51.680;5.394;2023-11-19T00:08:13;6.82;;;5.30;;
45522;SDS011;31254;51.680;5.394;2023-11-19T00:10:40;6.93;;;5.15;;
45522;SDS011;31254;51.680;5.394;2023-11-19T00:13:06;8.93;;;4.97;;
45522;SDS011;31254;51.680;5.394;2023-11-19T00:15:33;8.88;;;5.13;;
45522;SDS011;31254;51.680;5.394;2023-11-19T00:18:00;8.02;;;5.22;;
45522;SDS011;31254;51.680;5.394;2023-11-19T00:20:31;6.55;;;4.75;;
45522;SDS011;31254;51.680;5.394;2023-11-19T00:22:58;8.07;;;5.13;;
45522;SDS011;31254;51.680;5.394;2023-11-19T00:25:24;7.25;;;4.28;;
45522;SDS011;31254;51.680;5.394;2023-11-19T00:27:51;6.20;;;4.90;;
45522;SDS011;31254;51.680;5.394;2023-11-19T00:30:20;6.45;;;5.10;;
45522;SDS011;31254;51.680;5.394;2023-11-19T00:32:47;7.88;;;4.80;;
45522;SDS011;31254;51.680;5.394;2023-11-19T00:35:13;7.88;;;4.97;;
45522;SDS011;31254;51.680;5.394;2023-11-19T00:37:41;6.25;;;4.40;;
45522;SDS011;31254;51.680;5.394;2023-11-19T00:40:09;9.07;;;4.95;;
45522;SDS011;31254;51.680;5.394;2023-11-19T00:42:37;6.88;;;4.22;;
45522;SDS011;31254;51.680;5.394;2023-11-19T00:45:04;5.75;;;4.30;;
45522;SDS011;31254;51.680;5.394;2023-11-19T00:47:35;8.73;;;4.63;;
45522;SDS011;31254;51.680;5.394;2023-11-19T00:50:02;6.75;;;4.38;;
45522;SDS011;31254;51.680;5.394;2023-11-19T00:52:29;7.13;;;4.78;;
45522;SDS011;31254;51.680;5.394;2023-11-19T00:54:56;6.97;;;4.18;;
45522;SDS011;31254;51.680;5.394;2023-11-19T00:57:23;6.32;;;4.00;;
45522;SDS011;31254;51.680;5.394;2023-11-19T00:59:50;5.72;;;3.85;;
45522;SDS011;31254;51.680;5.394;2023-11-19T01:02:17;6.38;;;4.25;;
45522;SDS011;31254;51.680;5.394;2023-11-19T01:04:43;6.82;;;4.05;;
45522;SDS011;31254;51.680;5.394;2023-11-19T01:07:10;9.02;;;3.90;;
45522;SDS011;31254;51.680;5.394;2023-11-19T01:09:41;9.63;;;4.20;;
45522;SDS011;31254;51.680;5.394;2023-11-19T01:12:08;5.97;;;3.88;;
45522;SDS011;31254;51.680;5.394;2023-11-19T01:14:38;5.90;;;3.90;;
45522;SDS011;31254;51.680;5.394;2023-11-19T01:17:05;7.25;;;4.05;;
45522;SDS011;31254;51.680;5.394;2023-11-19T01:19:32;6.63;;;4.10;;
45522;SDS011;31254;51.680;5.394;2023-11-19T01:21:59;8.70;;;4.10;;
45522;SDS011;31254;51.680;5.394;2023-11-19T01:24:26;6.38;;;3.67;;
45522;SDS011;31254;51.680;5.394;2023-11-19T01:26:55;11.38;;;4.20;;
45522;SDS011;31254;51.680;5.394;2023-11-19T01:29:21;7.38;;;3.58;;
45522;SDS011;31254;51.680;5.394;2023-11-19T01:31:48;8.65;;;3.58;;
45522;SDS011;31254;51.680;5.394;2023-11-19T01:34:14;7.60;;;3.25;;
45522;SDS011;31254;51.680;5.394;2023-11-19T01:36:41;9.38;;;3.90;;
45522;SDS011;31254;51.680;5.394;2023-11-19T01:39:08;5.78;;;3.33;;
45522;SDS011;31254;51.680;5.394;2023-11-19T01:41:37;7.65;;;3.40;;
45522;SDS011;31254;51.680;5.394;2023-11-19T01:44:07;7.53;;;3.50;;
45522;SDS011;31254;51.680;5.394;2023-11-19T01:46:33;6.80;;;3.13;;
45522;SDS011;31254;51.680;5.394;2023-11-19T01:49:02;10.48;;;3.75;;
45522;SDS011;31254;51.680;5.394;2023-11-19T01:51:28;6.93;;;3.33;;
45522;SDS011;31254;51.680;5.394;2023-11-19T01:53:55;9.75;;;3.42;;
45522;SDS011;31254;51.680;5.394;2023-11-19T01:56:24;8.60;;;3.47;;
45522;SDS011;31254;51.680;5.394;2023-11-19T01:58:52;10.95;;;3.47;;
45522;SDS011;31254;51.680;5.394;2023-11-19T02:01:20;8.00;;;3.60;;
45522;SDS011;31254;51.680;5.394;2023-11-19T02:03:48;8.80;;;3.25;;
45522;SDS011;31254;51.680;5.394;2023-11-19T02:06:15;9.80;;;3.70;;
45522;SDS011;31254;51.680;5.394;2023-11-19T02:08:42;13.32;;;2.88;;
45522;SDS011;31254;51.680;5.394;2023-11-19T02:11:09;12.57;;;3.33;;
45522;SDS011;31254;51.680;5.394;2023-11-19T02:13:39;8.30;;;3.20;;
45522;SDS011;31254;51.680;5.394;2023-11-19T02:16:07;9.88;;;4.00;;
45522;SDS011;31254;51.680;5.394;2023-11-19T02:18:37;7.05;;;2.83;;
45522;SDS011;31254;51.680;5.394;2023-11-19T02:21:04;8.75;;;3.05;;
45522;SDS011;31254;51.680;5.394;2023-11-19T02:23:31;7.68;;;2.83;;
45522;SDS011;31254;51.680;5.394;2023-11-19T02:26:00;8.43;;;2.83;;
45522;SDS011;31254;51.680;5.394;2023-11-19T02:28:32;7.35;;;2.75;;
45522;SDS011;31254;51.680;5.394;2023-11-19T02:30:59;9.02;;;2.83;;
45522;SDS011;31254;51.680;5.394;2023-11-19T02:33:26;8.30;;;2.72;;
45522;SDS011;31254;51.680;5.394;2023-11-19T02:35:52;10.57;;;2.90;;
45522;SDS011;31254;51.680;5.394;2023-11-19T02:38:19;11.00;;;2.70;;
45522;SDS011;31254;51.680;5.394;2023-11-19T02:40:48;9.85;;;2.90;;
45522;SDS011;31254;51.680;5.394;2023-11-19T02:43:15;10.05;;;3.15;;
45522;SDS011;31254;51.680;5.394;2023-11-19T02:45:43;9.98;;;2.80;;
45522;SDS011;31254;51.680;5.394;2023-11-19T02:48:12;13.48;;;3.00;;
45522;SDS011;31254;51.680;5.394;2023-11-19T02:50:40;8.85;;;3.10;;
45522;SDS011;31254;51.680;5.394;2023-11-19T02:53:07;13.43;;;2.85;;
45522;SDS011;31254;51.680;5.394;2023-11-19T02:55:34;12.02;;;2.90;;
45522;SDS011;31254;51.680;5.394;2023-11-19T02:58:04;12.30;;;2.88;;
45522;SDS011;31254;51.680;5.394;2023-11-19T03:00:46;9.73;;;2.55;;
45522;SDS011;31254;51.680;5.394;2023-11-19T03:03:20;11.43;;;2.58;;
45522;SDS011;31254;51.680;5.394;2023-11-19T03:05:49;11.27;;;3.17;;
45522;SDS011;31254;51.680;5.394;2023-11-19T03:08:15;14.50;;;3.28;;
45522;SDS011;31254;51.680;5.394;2023-11-19T03:10:46;9.57;;;2.72;;
45522;SDS011;31254;51.680;5.394;2023-11-19T03:13:13;17.00;;;3.03;;
45522;SDS011;31254;51.680;5.394;2023-11-19T03:15:40;14.43;;;3.38;;
45522;SDS011;31254;51.680;5.394;2023-11-19T03:18:07;15.15;;;2.80;;
45522;SDS011;31254;51.680;5.394;2023-11-19T03:20:34;14.15;;;3.33;;
45522;SDS011;31254;51.680;5.394;2023-11-19T03:23:01;14.43;;;2.80;;
45522;SDS011;31254;51.680;5.394;2023-11-19T03:25:28;8.40;;;2.50;;
45522;SDS011;31254;51.680;5.394;2023-11-19T03:28:03;13.55;;;3.90;;
45522;SDS011;31254;51.680;5.394;2023-11-19T03:30:31;16.08;;;2.75;;
45522;SDS011;31254;51.680;5.394;2023-11-19T03:33:01;16.63;;;3.88;;
45522;SDS011;31254;51.680;5.394;2023-11-19T03:35:28;19.73;;;3.97;;
45522;SDS011;31254;51.680;5.394;2023-11-19T03:37:56;12.95;;;2.85;;
45522;SDS011;31254;51.680;5.394;2023-11-19T03:40:22;16.00;;;3.15;;
45522;SDS011;31254;51.680;5.394;2023-11-19T03:42:50;13.43;;;3.08;;
45522;SDS011;31254;51.680;5.394;2023-11-19T03:45:17;15.48;;;3.45;;
45522;SDS011;31254;51.680;5.394;2023-11-19T03:47:43;16.73;;;3.10;;
45522;SDS011;31254;51.680;5.394;2023-11-19T03:50:10;15.63;;;3.55;;
45522;SDS011;31254;51.680;5.394;2023-11-19T03:52:37;23.38;;;3.97;;
45522;SDS011;31254;51.680;5.394;2023-11-19T03:55:07;16.73;;;3.75;;
45522;SDS011;31254;51.680;5.394;2023-11-19T03:57:35;16.08;;;3.97;;
45522;SDS011;31254;51.680;5.394;2023-11-19T04:00:02;19.88;;;3.28;;
45522;SDS011;31254;51.680;5.394;2023-11-19T04:02:40;19.45;;;3.42;;
45522;SDS011;31254;51.680;5.394;2023-11-19T04:05:07;18.05;;;3.45;;
45522;SDS011;31254;51.680;5.394;2023-11-19T04:07:36;14.18;;;2.85;;
45522;SDS011;31254;51.680;5.394;2023-11-19T04:10:03;18.90;;;3.50;;
45522;SDS011;31254;51.680;5.394;2023-11-19T04:12:30;15.52;;;3.55;;
45522;SDS011;31254;51.680;5.394;2023-11-19T04:14:57;23.15;;;4.03;;
45522;SDS011;31254;51.680;5.394;2023-11-19T04:17:27;22.48;;;3.60;;
45522;SDS011;31254;51.680;5.394;2023-11-19T04:19:54;18.40;;;3.35;;
45522;SDS011;31254;51.680;5.394;2023-11-19T04:22:21;18.70;;;3.75;;
45522;SDS011;31254;51.680;5.394;2023-11-19T04:24:48;18.23;;;3.25;;
45522;SDS011;31254;51.680;5.394;2023-11-19T04:27:14;16.15;;;2.95;;
45522;SDS011;31254;51.680;5.394;2023-11-19T04:29:41;21.13;;;3.92;;
45522;SDS011;31254;51.680;5.394;2023-11-19T04:32:07;23.33;;;4.40;;
45522;SDS011;31254;51.680;5.394;2023-11-19T04:34:35;20.63;;;3.35;;
45522;SDS011;31254;51.680;5.394;2023-11-19T04:37:02;16.05;;;3.15;;
45522;SDS011;31254;51.680;5.394;2023-11-19T04:39:33;18.83;;;3.47;;
45522;SDS011;31254;51.680;5.394;2023-11-19T04:42:00;19.60;;;4.05;;
45522;SDS011;31254;51.680;5.394;2023-11-19T04:44:27;17.30;;;4.10;;
45522;SDS011;31254;51.680;5.394;2023-11-19T04:46:53;17.65;;;3.30;;
45522;SDS011;31254;51.680;5.394;2023-11-19T04:49:20;19.23;;;3.65;;
45522;SDS011;31254;51.680;5.394;2023-11-19T04:51:47;20.73;;;2.85;;
45522;SDS011;31254;51.680;5.394;2023-11-19T04:54:14;13.77;;;3.55;;
45522;SDS011;31254;51.680;5.394;2023-11-19T04:56:40;16.73;;;3.25;;
45522;SDS011;31254;51.680;5.394;2023-11-19T04:59:12;28.33;;;4.30;;
45522;SDS011;31254;51.680;5.394;2023-11-19T05:01:38;18.08;;;3.28;;
45522;SDS011;31254;51.680;5.394;2023-11-19T05:04:05;16.98;;;3.83;;
45522;SDS011;31254;51.680;5.394;2023-11-19T05:06:33;19.10;;;3.38;;
45522;SDS011;31254;51.680;5.394;2023-11-19T05:09:01;30.98;;;5.70;;
45522;SDS011;31254;51.680;5.394;2023-11-19T05:11:32;18.83;;;3.63;;
45522;SDS011;31254;51.680;5.394;2023-11-19T05:13:59;16.63;;;3.63;;
45522;SDS011;31254;51.680;5.394;2023-11-19T05:16:26;16.55;;;3.55;;
45522;SDS011;31254;51.680;5.394;2023-11-19T05:18:53;17.02;;;3.22;;
45522;SDS011;31254;51.680;5.394;2023-11-19T05:21:19;20.88;;;3.15;;
45522;SDS011;31254;51.680;5.394;2023-11-19T05:23:46;15.10;;;2.80;;
45522;SDS011;31254;51.680;5.394;2023-11-19T05:26:19;18.58;;;3.70;;
45522;SDS011;31254;51.680;5.394;2023-11-19T05:28:47;19.67;;;3.47;;
45522;SDS011;31254;51.680;5.394;2023-11-19T05:31:14;13.80;;;2.95;;
45522;SDS011;31254;51.680;5.394;2023-11-19T05:33:42;16.02;;;3.10;;
45522;SDS011;31254;51.680;5.394;2023-11-19T05:36:10;20.52;;;3.80;;
45522;SDS011;31254;51.680;5.394;2023-11-19T05:38:39;13.30;;;2.85;;
45522;SDS011;31254;51.680;5.394;2023-11-19T05:41:06;11.43;;;3.33;;
45522;SDS011;31254;51.680;5.394;2023-11-19T05:43:33;17.73;;;3.65;;
45522;SDS011;31254;51.680;5.394;2023-11-19T05:46:00;21.00;;;3.70;;
45522;SDS011;31254;51.680;5.394;2023-11-19T05:48:28;16.60;;;3.30;;
45522;SDS011;31254;51.680;5.394;2023-11-19T05:50:55;15.60;;;2.90;;
45522;SDS011;31254;51.680;5.394;2023-11-19T05:53:22;23.50;;;4.30;;
45522;SDS011;31254;51.680;5.394;2023-11-19T05:55:50;24.48;;;4.85;;
45522;SDS011;31254;51.680;5.394;2023-11-19T05:58:24;16.70;;;3.10;;
45522;SDS011;31254;51.680;5.394;2023-11-19T06:00:55;18.10;;;3.45;;
45522;SDS011;31254;51.680;5.394;2023-11-19T06:03:23;25.35;;;4.68;;
45522;SDS011;31254;51.680;5.394;2023-11-19T06:05:50;15.75;;;3.13;;
45522;SDS011;31254;51.680;5.394;2023-11-19T06:08:16;19.17;;;3.85;;
45522;SDS011;31254;51.680;5.394;2023-11-19T06:10:44;17.30;;;3.58;;
45522;SDS011;31254;51.680;5.394;2023-11-19T06:13:13;20.75;;;3.72;;
45522;SDS011;31254;51.680;5.394;2023-11-19T06:15:41;17.63;;;3.80;;
45522;SDS011;31254;51.680;5.394;2023-11-19T06:18:08;28.50;;;5.10;;
45522;SDS011;31254;51.680;5.394;2023-11-19T06:20:36;16.83;;;3.75;;
45522;SDS011;31254;51.680;5.394;2023-11-19T06:23:06;27.90;;;4.85;;
45522;SDS011;31254;51.680;5.394;2023-11-19T06:25:33;18.55;;;3.83;;
45522;SDS011;31254;51.680;5.394;2023-11-19T06:28:01;16.42;;;3.22;;
45522;SDS011;31254;51.680;5.394;2023-11-19T06:30:28;21.60;;;4.03;;
45522;SDS011;31254;51.680;5.394;2023-11-19T06:32:58;24.67;;;3.90;;
45522;SDS011;31254;51.680;5.394;2023-11-19T06:35:26;20.08;;;3.60;;
45522;SDS011;31254;51.680;5.394;2023-11-19T06:37:55;24.77;;;3.90;;
45522;SDS011;31254;51.680;5.394;2023-11-19T06:40:22;21.00;;;3.60;;
45522;SDS011;31254;51.680;5.394;2023-11-19T06:42:49;27.55;;;3.92;;
45522;SDS011;31254;51.680;5.394;2023-11-19T06:45:18;21.23;;;3.63;;
45522;SDS011;31254;51.680;5.394;2023-11-19T06:47:44;22.13;;;3.65;;
45522;SDS011;31254;51.680;5.394;2023-11-19T06:50:11;21.00;;;4.88;;
45522;SDS011;31254;51.680;5.394;2023-11-19T06:52:38;18.33;;;3.67;;
45522;SDS011;31254;51.680;5.394;2023-11-19T06:55:06;14.13;;;3.47;;
45522;SDS011;31254;51.680;5.394;2023-11-19T06:57:34;22.25;;;4.20;;
45522;SDS011;31254;51.680;5.394;2023-11-19T07:00:01;18.77;;;3.60;;
45522;SDS011;31254;51.680;5.394;2023-11-19T07:02:29;22.25;;;3.58;;
45522;SDS011;31254;51.680;5.394;2023-11-19T07:04:55;18.45;;;3.40;;
45522;SDS011;31254;51.680;5.394;2023-11-19T07:07:22;18.27;;;3.45;;
45522;SDS011;31254;51.680;5.394;2023-11-19T07:09:49;14.82;;;3.00;;
45522;SDS011;31254;51.680;5.394;2023-11-19T07:12:16;25.88;;;4.68;;
45522;SDS011;31254;51.680;5.394;2023-11-19T07:14:43;19.80;;;3.72;;
45522;SDS011;31254;51.680;5.394;2023-11-19T07:17:09;18.50;;;3.75;;
45522;SDS011;31254;51.680;5.394;2023-11-19T07:19:36;12.48;;;3.03;;
45522;SDS011;31254;51.680;5.394;2023-11-19T07:22:04;20.50;;;3.58;;
45522;SDS011;31254;51.680;5.394;2023-11-19T07:24:32;16.73;;;3.15;;
45522;SDS011;31254;51.680;5.394;2023-11-19T07:26:59;18.63;;;4.40;;
45522;SDS011;31254;51.680;5.394;2023-11-19T07:29:26;17.52;;;3.72;;
45522;SDS011;31254;51.680;5.394;2023-11-19T07:31:55;16.88;;;4.15;;
45522;SDS011;31254;51.680;5.394;2023-11-19T07:34:23;19.27;;;3.40;;
45522;SDS011;31254;51.680;5.394;2023-11-19T07:36:51;14.07;;;3.67;;
45522;SDS011;31254;51.680;5.394;2023-11-19T07:39:18;18.88;;;3.08;;
45522;SDS011;31254;51.680;5.394;2023-11-19T07:41:46;12.95;;;2.97;;
45522;SDS011;31254;51.680;5.394;2023-11-19T07:44:13;23.80;;;3.80;;
45522;SDS011;31254;51.680;5.394;2023-11-19T07:46:41;22.95;;;3.90;;
45522;SDS011;31254;51.680;5.394;2023-11-19T07:49:08;20.65;;;3.65;;
45522;SDS011;31254;51.680;5.394;2023-11-19T07:51:36;18.33;;;3.15;;
45522;SDS011;31254;51.680;5.394;2023-11-19T07:54:03;23.23;;;4.15;;
45522;SDS011;31254;51.680;5.394;2023-11-19T07:56:31;19.70;;;3.72;;
45522;SDS011;31254;51.680;5.394;2023-11-19T07:59:01;22.17;;;3.90;;
45522;SDS011;31254;51.680;5.394;2023-11-19T08:01:30;20.58;;;3.78;;
45522;SDS011;31254;51.680;5.394;2023-11-19T08:03:57;23.20;;;4.35;;
45522;SDS011;31254;51.680;5.394;2023-11-19T08:06:25;17.90;;;3.65;;
45522;SDS011;31254;51.680;5.394;2023-11-19T08:08:52;17.77;;;3.58;;
45522;SDS011;31254;51.680;5.394;2023-11-19T08:11:19;17.30;;;3.55;;
45522;SDS011;31254;51.680;5.394;2023-11-19T08:13:46;21.10;;;3.35;;
45522;SDS011;31254;51.680;5.394;2023-11-19T08:16:13;21.42;;;3.95;;
45522;SDS011;31254;51.680;5.394;2023-11-19T08:18:42;16.50;;;3.20;;
45522;SDS011;31254;51.680;5.394;2023-11-19T08:21:09;12.50;;;2.67;;
45522;SDS011;31254;51.680;5.394;2023-11-19T08:23:37;18.00;;;3.28;;
45522;SDS011;31254;51.680;5.394;2023-11-19T08:26:05;23.05;;;4.50;;
45522;SDS011;31254;51.680;5.394;2023-11-19T08:28:32;16.48;;;3.50;;
45522;SDS011;31254;51.680;5.394;2023-11-19T08:31:01;17.65;;;3.17;;
45522;SDS011;31254;51.680;5.394;2023-11-19T08:33:28;15.10;;;3.13;;
45522;SDS011;31254;51.680;5.394;2023-11-19T08:35:55;16.75;;;3.33;;
45522;SDS011;31254;51.680;5.394;2023-11-19T08:38:21;23.77;;;4.60;;
45522;SDS011;31254;51.680;5.394;2023-11-19T08:40:51;23.10;;;4.03;;
45522;SDS011;31254;51.680;5.394;2023-11-19T08:43:18;21.75;;;4.30;;
45522;SDS011;31254;51.680;5.394;2023-11-19T08:45:44;15.98;;;3.40;;
45522;SDS011;31254;51.680;5.394;2023-11-19T08:48:11;25.85;;;4.70;;
45522;SDS011;31254;51.680;5.394;2023-11-19T08:50:38;21.30;;;4.07;;
45522;SDS011;31254;51.680;5.394;2023-11-19T08:53:04;23.45;;;3.70;;
45522;SDS011;31254;51.680;5.394;2023-11-19T08:55:33;19.52;;;4.35;;
45522;SDS011;31254;51.680;5.394;2023-11-19T08:58:00;19.45;;;4.43;;
45522;SDS011;31254;51.680;5.394;2023-11-19T09:00:27;22.67;;;3.80;;
45522;SDS011;31254;51.680;5.394;2023-11-19T09:02:53;17.63;;;3.75;;
45522;SDS011;31254;51.680;5.394;2023-11-19T09:05:20;22.90;;;4.18;;
45522;SDS011;31254;51.680;5.394;2023-11-19T09:07:49;19.98;;;3.53;;
45522;SDS011;31254;51.680;5.394;2023-11-19T09:10:16;27.88;;;4.63;;
45522;SDS011;31254;51.680;5.394;2023-11-19T09:12:42;29.60;;;4.18;;
45522;SDS011;31254;51.680;5.394;2023-11-19T09:15:09;19.20;;;3.53;;
45522;SDS011;31254;51.680;5.394;2023-11-19T09:17:37;26.33;;;4.70;;
45522;SDS011;31254;51.680;5.394;2023-11-19T09:20:03;16.95;;;3.20;;
45522;SDS011;31254;51.680;5.394;2023-11-19T09:22:30;21.50;;;4.13;;
45522;SDS011;31254;51.680;5.394;2023-11-19T09:24:57;17.63;;;3.55;;
45522;SDS011;31254;51.680;5.394;2023-11-19T09:27:27;20.80;;;3.90;;
45522;SDS011;31254;51.680;5.394;2023-11-19T09:29:54;23.70;;;3.85;;
45522;SDS011;31254;51.680;5.394;2023-11-19T09:32:24;23.77;;;3.92;;
45522;SDS011;31254;51.680;5.394;2023-11-19T09:34:51;21.65;;;4.18;;
45522;SDS011;31254;51.680;5.394;2023-11-19T09:37:18;22.80;;;3.80;;
45522;SDS011;31254;51.680;5.394;2023-11-19T09:39:47;20.40;;;3.75;;
45522;SDS011;31254;51.680;5.394;2023-11-19T09:42:15;22.98;;;4.53;;
45522;SDS011;31254;51.680;5.394;2023-11-19T09:44:42;27.20;;;3.70;;
45522;SDS011;31254;51.680;5.394;2023-11-19T09:47:11;28.00;;;3.88;;
45522;SDS011;31254;51.680;5.394;2023-11-19T09:49:39;20.10;;;3.83;;
45522;SDS011;31254;51.680;5.394;2023-11-19T09:52:06;21.17;;;3.90;;
45522;SDS011;31254;51.680;5.394;2023-11-19T09:54:33;19.25;;;4.10;;
45522;SDS011;31254;51.680;5.394;2023-11-19T09:56:59;17.83;;;3.50;;
45522;SDS011;31254;51.680;5.394;2023-11-19T09:59:31;18.83;;;3.42;;
45522;SDS011;31254;51.680;5.394;2023-11-19T10:01:59;21.27;;;3.55;;
45522;SDS011;31254;51.680;5.394;2023-11-19T10:04:26;23.75;;;3.83;;
45522;SDS011;31254;51.680;5.394;2023-11-19T10:06:56;21.88;;;4.32;;
45522;SDS011;31254;51.680;5.394;2023-11-19T10:09:23;17.33;;;3.30;;
45522;SDS011;31254;51.680;5.394;2023-11-19T10:11:50;18.85;;;3.20;;
45522;SDS011;31254;51.680;5.394;2023-11-19T10:14:17;23.55;;;3.85;;
45522;SDS011;31254;51.680;5.394;2023-11-19T10:16:49;19.38;;;3.65;;
45522;SDS011;31254;51.680;5.394;2023-11-19T10:19:19;14.35;;;3.10;;
45522;SDS011;31254;51.680;5.394;2023-11-19T10:21:47;20.02;;;4.15;;
45522;SDS011;31254;51.680;5.394;2023-11-19T10:24:13;22.90;;;3.42;;
45522;SDS011;31254;51.680;5.394;2023-11-19T10:26:56;22.88;;;3.83;;
45522;SDS011;31254;51.680;5.394;2023-11-19T10:29:23;19.10;;;3.72;;
45522;SDS011;31254;51.680;5.394;2023-11-19T10:31:57;18.58;;;3.50;;
45522;SDS011;31254;51.680;5.394;2023-11-19T10:34:43;18.42;;;3.20;;
45522;SDS011;31254;51.680;5.394;2023-11-19T10:37:27;34.50;;;6.07;;
45522;SDS011;31254;51.680;5.394;2023-11-19T10:39:55;41.00;;;5.97;;
45522;SDS011;31254;51.680;5.394;2023-11-19T10:42:21;35.35;;;6.05;;
45522;SDS011;31254;51.680;5.394;2023-11-19T10:44:48;37.80;;;5.65;;
45522;SDS011;31254;51.680;5.394;2023-11-19T10:47:16;38.03;;;5.65;;
45522;SDS011;31254;51.680;5.394;2023-11-19T10:50:03;36.67;;;5.25;;
45522;SDS011;31254;51.680;5.394;2023-11-19T10:52:31;41.25;;;6.13;;
45522;SDS011;31254;51.680;5.394;2023-11-19T10:54:58;29.42;;;5.78;;
45522;SDS011;31254;51.680;5.394;2023-11-19T10:57:28;26.40;;;5.00;;
45522;SDS011;31254;51.680;5.394;2023-11-19T11:00:00;37.97;;;5.47;;
45522;SDS011;31254;51.680;5.394;2023-11-19T11:02:28;42.10;;;6.45;;
45522;SDS011;31254;51.680;5.394;2023-11-19T11:05:00;37.85;;;5.60;;
45522;SDS011;31254;51.680;5.394;2023-11-19T11:07:29;29.98;;;5.90;;
45522;SDS011;31254;51.680;5.394;2023-11-19T11:10:06;31.20;;;5.13;;
45522;SDS011;31254;51.680;5.394;2023-11-19T11:12:36;40.08;;;5.30;;
45522;SDS011;31254;51.680;5.394;2023-11-19T11:15:08;30.55;;;5.38;;
45522;SDS011;31254;51.680;5.394;2023-11-19T11:17:39;35.03;;;6.35;;
45522;SDS011;31254;51.680;5.394;2023-11-19T11:20:07;35.78;;;5.50;;
45522;SDS011;31254;51.680;5.394;2023-11-19T11:22:40;32.67;;;5.45;;
45522;SDS011;31254;51.680;5.394;2023-11-19T11:28:12;37.20;;;5.88;;
45522;SDS011;31254;51.680;5.394;2023-11-19T11:31:00;37.40;;;5.38;;
45522;SDS011;31254;51.680;5.394;2023-11-19T11:39:34;21.25;;;4.43;;
45522;SDS011;31254;51.680;5.394;2023-11-19T11:50:16;25.75;;;4.55;;
45522;SDS011;31254;51.680;5.394;2023-11-19T11:58:03;23.60;;;4.07;;
45522;SDS011;31254;51.680;5.394;2023-11-19T12:00:32;31.02;;;5.75;;
45522;SDS011;31254;51.680;5.394;2023-11-19T12:03:04;28.45;;;4.95;;
45522;SDS011;31254;51.680;5.394;2023-11-19T12:05:31;30.00;;;4.30;;
45522;SDS011;31254;51.680;5.394;2023-11-19T12:08:01;28.25;;;4.18;;
45522;SDS011;31254;51.680;5.394;2023-11-19T12:10:31;33.55;;;5.22;;
45522;SDS011;31254;51.680;5.394;2023-11-19T12:12:59;26.27;;;4.38;;
45522;SDS011;31254;51.680;5.394;2023-11-19T12:15:27;28.65;;;4.30;;
45522;SDS011;31254;51.680;5.394;2023-11-19T12:17:54;18.90;;;3.90;;
45522;SDS011;31254;51.680;5.394;2023-11-19T12:20:24;22.98;;;4.07;;
45522;SDS011;31254;51.680;5.394;2023-11-19T12:22:55;25.05;;;4.90;;
45522;SDS011;31254;51.680;5.394;2023-11-19T12:25:22;26.17;;;5.07;;
45522;SDS011;31254;51.680;5.394;2023-11-19T12:27:50;30.20;;;5.00;;
45522;SDS011;31254;51.680;5.394;2023-11-19T12:30:22;33.85;;;5.15;;
45522;SDS011;31254;51.680;5.394;2023-11-19T12:32:50;30.95;;;5.13;;
45522;SDS011;31254;51.680;5.394;2023-11-19T12:35:20;22.25;;;4.20;;
45522;SDS011;31254;51.680;5.394;2023-11-19T12:37:47;26.85;;;5.07;;
45522;SDS011;31254;51.680;5.394;2023-11-19T12:40:16;29.25;;;4.75;;
45522;SDS011;31254;51.680;5.394;2023-11-19T12:42:44;25.70;;;4.85;;
45522;SDS011;31254;51.680;5.394;2023-11-19T12:45:21;28.17;;;4.95;;
45522;SDS011;31254;51.680;5.394;2023-11-19T12:47:50;25.08;;;4.78;;
45522;SDS011;31254;51.680;5.394;2023-11-19T12:50:30;33.85;;;5.65;;
45522;SDS011;31254;51.680;5.394;2023-11-19T12:53:16;31.77;;;5.55;;
45522;SDS011;31254;51.680;5.394;2023-11-19T12:55:43;28.98;;;5.72;;
45522;SDS011;31254;51.680;5.394;2023-11-19T12:58:09;30.52;;;4.80;;
45522;SDS011;31254;51.680;5.394;2023-11-19T13:00:36;33.50;;;6.70;;
45522;SDS011;31254;51.680;5.394;2023-11-19T13:03:02;27.77;;;5.32;;
45522;SDS011;31254;51.680;5.394;2023-11-19T13:05:30;26.92;;;5.20;;
45522;SDS011;31254;51.680;5.394;2023-11-19T13:10:29;29.55;;;5.07;;
45522;SDS011;31254;51.680;5.394;2023-11-19T13:13:00;29.05;;;5.55;;
45522;SDS011;31254;51.680;5.394;2023-11-19T13:15:37;34.47;;;5.43;;
45522;SDS011;31254;51.680;5.394;2023-11-19T13:18:03;23.13;;;4.20;;
45522;SDS011;31254;51.680;5.394;2023-11-19T13:20:30;21.30;;;4.63;;
45522;SDS011;31254;51.680;5.394;2023-11-19T13:23:02;21.48;;;4.18;;
45522;SDS011;31254;51.680;5.394;2023-11-19T13:25:30;16.58;;;3.95;;
45522;SDS011;31254;51.680;5.394;2023-11-19T13:27:58;19.02;;;4.07;;
45522;SDS011;31254;51.680;5.394;2023-11-19T13:30:25;20.88;;;3.70;;
45522;SDS011;31254;51.680;5.394;2023-11-19T13:32:53;23.98;;;4.80;;
45522;SDS011;31254;51.680;5.394;2023-11-19T13:35:22;17.27;;;4.18;;
45522;SDS011;31254;51.680;5.394;2023-11-19T13:37:49;20.02;;;3.95;;
45522;SDS011;31254;51.680;5.394;2023-11-19T13:40:16;18.23;;;3.95;;
45522;SDS011;31254;51.680;5.394;2023-11-19T13:42:42;21.23;;;4.22;;
45522;SDS011;31254;51.680;5.394;2023-11-19T13:45:13;17.60;;;3.17;;
45522;SDS011;31254;51.680;5.394;2023-11-19T13:47:44;22.13;;;4.63;;
45522;SDS011;31254;51.680;5.394;2023-11-19T13:50:12;24.52;;;3.63;;
45522;SDS011;31254;51.680;5.394;2023-11-19T13:52:42;19.42;;;4.15;;
45522;SDS011;31254;51.680;5.394;2023-11-19T13:55:11;15.18;;;3.35;;
45522;SDS011;31254;51.680;5.394;2023-11-19T13:57:39;19.35;;;3.53;;
45522;SDS011;31254;51.680;5.394;2023-11-19T14:00:11;17.00;;;3.38;;
45522;SDS011;31254;51.680;5.394;2023-11-19T14:02:45;14.68;;;2.78;;
45522;SDS011;31254;51.680;5.394;2023-11-19T14:05:14;18.92;;;3.03;;
45522;SDS011;31254;51.680;5.394;2023-11-19T14:08:03;17.10;;;4.03;;
45522;SDS011;31254;51.680;5.394;2023-11-19T14:10:49;13.23;;;3.45;;
45522;SDS011;31254;51.680;5.394;2023-11-19T14:13:15;17.23;;;3.15;;
45522;SDS011;31254;51.680;5.394;2023-11-19T14:15:42;19.95;;;3.80;;
45522;SDS011;31254;51.680;5.394;2023-11-19T14:18:10;16.75;;;3.25;;
45522;SDS011;31254;51.680;5.394;2023-11-19T14:20:36;17.60;;;3.78;;
45522;SDS011;31254;51.680;5.394;2023-11-19T14:23:05;19.52;;;3.65;;
45522;SDS011;31254;51.680;5.394;2023-11-19T14:25:32;17.77;;;3.50;;
45522;SDS011;31254;51.680;5.394;2023-11-19T14:27:58;19.45;;;3.92;;
45522;SDS011;31254;51.680;5.394;2023-11-19T14:30:25;18.88;;;3.72;;
45522;SDS011;31254;51.680;5.394;2023-11-19T14:32:52;17.60;;;3.45;;
45522;SDS011;31254;51.680;5.394;2023-11-19T14:35:20;17.10;;;3.58;;
45522;SDS011;31254;51.680;5.394;2023-11-19T14:37:46;18.95;;;4.15;;
45522;SDS011;31254;51.680;5.394;2023-11-19T14:40:13;18.10;;;3.80;;
45522;SDS011;31254;51.680;5.394;2023-11-19T14:42:39;17.90;;;3.28;;
45522;SDS011;31254;51.680;5.394;2023-11-19T14:45:06;17.90;;;4.03;;
45522;SDS011;31254;51.680;5.394;2023-11-19T14:47:33;21.30;;;3.85;;
45522;SDS011;31254;51.680;5.394;2023-11-19T14:50:00;16.02;;;3.92;;
45522;SDS011;31254;51.680;5.394;2023-11-19T14:52:27;16.45;;;4.22;;
45522;SDS011;31254;51.680;5.394;2023-11-19T14:54:54;17.17;;;3.17;;
45522;SDS011;31254;51.680;5.394;2023-11-19T14:57:22;24.02;;;3.85;;
45522;SDS011;31254;51.680;5.394;2023-11-19T14:59:49;17.67;;;4.47;;
45522;SDS011;31254;51.680;5.394;2023-11-19T15:02:16;15.93;;;3.67;;
45522;SDS011;31254;51.680;5.394;2023-11-19T15:04:42;18.15;;;3.10;;
45522;SDS011;31254;51.680;5.394;2023-11-19T15:07:10;20.52;;;3.90;;